createdAt,value
2019-01-02T00:00:19.470Z,0.00
2019-01-02T00:01:19.424Z,0.00
2019-01-02T00:02:19.381Z,0.00
2019-01-02T00:03:19.338Z,0.00
2019-01-02T00:04:19.297Z,0.00
2019-01-02T00:05:19.255Z,0.00
2019-01-02T00:06:19.213Z,0.00
2019-01-02T00:07:19.169Z,0.00
2019-01-02T00:08:19.127Z,0.00
2019-01-02T00:09:19.078Z,0.00
2019-01-02T00:10:19.036Z,0.00
2019-01-02T00:11:18.999Z,0.00
2019-01-02T00:12:18.949Z,0.00
2019-01-02T00:13:18.912Z,0.00
2019-01-02T00:14:18.869Z,0.00
2019-01-02T00:15:18.824Z,0.00
2019-01-02T00:16:18.777Z,0.00
2019-01-02T00:17:18.740Z,0.00
2019-01-02T00:18:18.696Z,0.00
2019-01-02T00:19:18.653Z,0.00
2019-01-02T00:20:18.610Z,0.00
2019-01-02T00:21:18.563Z,0.00
2019-01-02T00:22:18.521Z,0.00
2019-01-02T00:23:18.479Z,0.00
2019-01-02T00:24:18.436Z,0.00
2019-01-02T00:25:18.396Z,0.00
2019-01-02T00:26:18.350Z,0.00
2019-01-02T00:27:18.307Z,0.00
2019-01-02T00:28:18.266Z,0.00
2019-01-02T00:29:18.218Z,0.00
2019-01-02T00:30:18.176Z,0.00
2019-01-02T00:31:18.137Z,0.00
2019-01-02T00:32:18.097Z,0.00
2019-01-02T00:33:18.046Z,0.00
2019-01-02T00:34:18.005Z,0.00
2019-01-02T00:35:17.964Z,0.00
2019-01-02T00:36:17.917Z,0.00
2019-01-02T00:37:17.880Z,0.00
2019-01-02T00:38:17.835Z,0.00
2019-01-02T00:39:17.791Z,0.00
2019-01-02T00:40:17.746Z,0.00
2019-01-02T00:41:17.709Z,0.00
2019-01-02T00:42:17.665Z,0.00
2019-01-02T00:43:17.621Z,0.00
2019-01-02T00:44:17.583Z,0.00
2019-01-02T00:45:22.403Z,0.00
2019-01-02T00:46:17.491Z,0.00
2019-01-02T00:47:17.451Z,0.00
2019-01-02T00:48:17.411Z,0.00
2019-01-02T00:49:17.359Z,0.00
2019-01-02T00:50:17.318Z,0.00
2019-01-02T00:51:17.276Z,0.00
2019-01-02T00:52:17.229Z,0.00
2019-01-02T00:53:17.195Z,0.00
2019-01-02T00:54:17.151Z,0.00
2019-01-02T00:55:17.105Z,0.00
2019-01-02T00:56:17.067Z,0.00
2019-01-02T00:57:17.015Z,0.00
2019-01-02T00:58:16.974Z,0.00
2019-01-02T00:59:16.931Z,0.00
2019-01-02T01:00:16.885Z,0.00
2019-01-02T01:01:16.848Z,0.00
2019-01-02T01:02:16.803Z,0.00
2019-01-02T01:03:16.761Z,0.00
2019-01-02T01:04:16.716Z,0.00
2019-01-02T01:05:16.676Z,0.00
2019-01-02T01:06:16.632Z,0.00
2019-01-02T01:07:16.589Z,0.00
2019-01-02T01:08:16.549Z,0.00
2019-01-02T01:09:16.502Z,0.00
2019-01-02T01:10:16.463Z,0.00
2019-01-02T01:11:16.414Z,0.00
2019-01-02T01:12:16.397Z,0.00
2019-01-02T01:13:16.342Z,0.00
2019-01-02T01:14:16.288Z,0.00
2019-01-02T01:15:16.246Z,0.00
2019-01-02T01:16:16.204Z,0.00
2019-01-02T01:17:16.154Z,0.00
2019-01-02T01:18:16.113Z,0.00
2019-01-02T01:19:16.073Z,0.00
2019-01-02T01:20:16.034Z,0.00
2019-01-02T01:21:15.982Z,0.00
2019-01-02T01:22:15.941Z,0.00
2019-01-02T01:23:15.899Z,0.00
2019-01-02T01:24:15.853Z,0.00
2019-01-02T01:25:15.815Z,0.00
2019-01-02T01:26:15.771Z,0.00
2019-01-02T01:27:15.732Z,0.00
2019-01-02T01:28:15.686Z,0.00
2019-01-02T01:29:15.639Z,0.00
2019-01-02T01:30:15.597Z,0.00
2019-01-02T01:31:15.552Z,0.00
2019-01-02T01:32:15.508Z,0.00
2019-01-02T01:33:15.471Z,0.00
2019-01-02T01:34:15.426Z,0.00
2019-01-02T01:35:15.381Z,0.00
2019-01-02T01:36:15.334Z,0.00
2019-01-02T01:37:15.299Z,0.00
2019-01-02T01:38:15.260Z,0.00
2019-01-02T01:39:15.214Z,0.00
2019-01-02T01:40:15.169Z,0.00
2019-01-02T01:41:15.122Z,0.00
2019-01-02T01:42:15.081Z,0.00
2019-01-02T04:06:17.553Z,0.00
2019-01-02T04:07:17.487Z,0.00
2019-01-02T04:08:17.434Z,0.00
2019-01-02T04:09:17.389Z,0.00
2019-01-02T04:10:17.343Z,0.00
2019-01-02T04:11:17.301Z,0.00
2019-01-02T04:12:17.251Z,0.00
2019-01-02T04:13:17.250Z,0.00
2019-01-02T04:14:17.161Z,0.00
2019-01-02T04:15:17.114Z,0.00
2019-01-02T04:16:17.075Z,0.00
2019-01-02T04:17:17.031Z,0.00
2019-01-02T04:18:16.984Z,0.00
2019-01-02T04:19:16.942Z,0.00
2019-01-02T04:20:16.894Z,0.00
2019-01-02T04:21:16.852Z,0.00
2019-01-02T04:22:16.808Z,0.00
2019-01-02T04:23:16.763Z,0.00
2019-01-02T04:24:16.722Z,0.00
2019-01-02T04:25:16.677Z,0.00
2019-01-02T04:26:16.630Z,0.00
2019-01-02T04:27:16.585Z,0.00
2019-01-02T04:28:16.548Z,0.00
2019-01-02T04:29:16.502Z,0.00
2019-01-02T04:30:16.459Z,0.00
2019-01-02T04:31:16.418Z,0.00
2019-01-02T04:32:16.368Z,0.00
2019-01-02T04:33:16.326Z,0.00
2019-01-02T04:34:16.287Z,0.00
2019-01-02T04:35:16.238Z,0.00
2019-01-02T04:36:16.201Z,0.00
2019-01-02T04:37:16.156Z,0.00
2019-01-02T04:38:16.112Z,0.00
2019-01-02T04:39:16.070Z,0.00
2019-01-02T04:40:16.023Z,0.00
2019-01-02T04:41:15.983Z,0.00
2019-01-02T04:42:15.939Z,0.00
2019-01-02T04:43:15.900Z,0.00
2019-01-02T04:44:15.849Z,0.00
2019-01-02T04:45:15.809Z,0.00
2019-01-02T04:46:15.765Z,0.00
2019-01-02T04:47:15.731Z,0.00
2019-01-02T04:48:15.683Z,0.00
2019-01-02T04:49:15.638Z,0.00
2019-01-02T04:50:15.596Z,0.00
2019-01-02T04:51:15.554Z,0.00
2019-01-02T04:52:15.507Z,0.00
2019-01-02T04:53:15.463Z,0.00
2019-01-02T04:54:15.419Z,0.00
2019-01-02T04:55:15.376Z,0.00
2019-01-02T04:56:15.347Z,0.00
2019-01-02T04:57:15.291Z,0.00
2019-01-02T04:58:15.248Z,0.00
2019-01-02T04:59:15.200Z,0.00
2019-01-02T05:00:15.226Z,0.00
2019-01-02T05:01:15.118Z,0.00
2019-01-02T05:02:15.075Z,0.00
2019-01-02T05:03:15.035Z,0.00
2019-01-02T05:04:14.986Z,0.00
2019-01-02T05:05:14.946Z,0.00
2019-01-02T05:06:14.900Z,0.00
2019-01-02T05:07:14.855Z,0.00
2019-01-02T05:08:14.819Z,0.00
2019-01-02T05:09:14.774Z,0.00
2019-01-02T05:10:14.734Z,0.00
2019-01-02T05:11:14.692Z,0.00
2019-01-02T05:12:14.640Z,0.00
2019-01-02T05:13:14.642Z,0.00
2019-01-02T05:14:14.557Z,0.00
2019-01-02T05:15:14.516Z,0.00
2019-01-02T05:16:14.468Z,0.00
2019-01-02T05:17:14.427Z,0.00
2019-01-02T05:18:14.383Z,0.00
2019-01-02T05:19:14.339Z,0.00
2019-01-02T05:20:14.301Z,0.00
2019-01-02T05:21:14.258Z,0.00
2019-01-02T05:22:14.215Z,0.00
2019-01-02T05:23:14.171Z,0.00
2019-01-02T05:24:14.123Z,0.00
2019-01-02T05:25:14.083Z,0.00
2019-01-02T05:26:14.038Z,0.00
2019-01-02T05:27:13.992Z,0.00
2019-01-02T05:28:13.970Z,0.00
2019-01-02T05:29:13.911Z,0.00
2019-01-02T05:30:13.876Z,0.00
2019-01-02T05:31:13.820Z,0.00
2019-01-02T05:32:13.785Z,0.00
2019-01-02T05:33:13.738Z,0.00
2019-01-02T05:34:13.695Z,0.00
2019-01-02T05:35:13.659Z,0.00
2019-01-02T05:36:13.605Z,0.00
2019-01-02T05:37:13.566Z,0.00
2019-01-02T05:38:13.524Z,0.00
2019-01-02T05:39:13.477Z,0.00
2019-01-02T05:40:13.442Z,0.00
2019-01-02T05:41:13.393Z,0.00
2019-01-02T05:42:13.349Z,0.00
2019-01-02T05:43:13.310Z,0.00
2019-01-02T05:44:13.260Z,0.00
2019-01-02T05:45:13.218Z,0.00
2019-01-02T05:46:13.177Z,0.00
2019-01-02T05:47:13.137Z,0.00
2019-01-02T05:48:13.087Z,0.00
2019-01-02T05:49:13.048Z,0.00
2019-01-02T05:50:13.004Z,0.00
2019-01-02T05:51:12.959Z,0.00
2019-01-02T05:52:12.920Z,0.00
2019-01-02T05:53:12.876Z,0.00
2019-01-02T05:54:12.834Z,0.00
2019-01-02T05:55:12.829Z,0.00
2019-01-02T05:56:12.748Z,0.00
2019-01-02T05:57:12.706Z,0.00
2019-01-02T05:58:12.664Z,0.00
2019-01-02T05:59:12.619Z,0.00
2019-01-02T06:00:12.572Z,0.00
2019-01-02T06:01:12.527Z,0.00
2019-01-02T06:02:12.489Z,0.00
2019-01-02T06:03:12.444Z,0.00
2019-01-02T06:04:12.400Z,0.00
2019-01-02T06:05:12.356Z,0.00
2019-01-02T06:06:12.311Z,0.00
2019-01-02T06:07:12.271Z,0.00
2019-01-02T06:08:12.230Z,0.00
2019-01-02T06:09:12.188Z,0.00
2019-01-02T06:10:12.144Z,0.00
2019-01-02T06:11:12.099Z,0.00
2019-01-02T06:12:12.052Z,0.00
2019-01-02T06:13:12.009Z,0.00
2019-01-02T06:14:11.965Z,0.00
2019-01-02T06:15:11.925Z,0.00
2019-01-02T06:16:11.888Z,0.00
2019-01-02T06:17:11.842Z,0.00
2019-01-02T06:18:11.792Z,0.00
2019-01-02T06:19:11.750Z,0.00
2019-01-02T06:20:11.711Z,0.00
2019-01-02T06:21:11.670Z,0.00
2019-01-02T06:22:11.626Z,0.00
2019-01-02T06:23:11.582Z,0.00
2019-01-02T06:24:11.535Z,0.00
2019-01-02T06:25:11.492Z,0.00
2019-01-02T06:26:11.448Z,0.00
2019-01-02T06:27:11.407Z,0.00
2019-01-02T06:28:11.367Z,0.00
2019-01-02T06:29:11.324Z,0.00
2019-01-02T06:30:11.330Z,0.00
2019-01-02T06:31:11.238Z,0.00
2019-01-02T06:32:11.192Z,0.00
2019-01-02T06:33:11.146Z,0.00
2019-01-02T06:34:11.109Z,0.00
2019-01-02T06:35:11.062Z,0.00
2019-01-02T06:36:11.017Z,0.00
2019-01-02T06:37:10.974Z,0.00
2019-01-02T06:38:10.929Z,0.00
2019-01-02T06:39:10.889Z,0.00
2019-01-02T06:40:10.848Z,0.00
2019-01-02T06:41:10.806Z,0.00
2019-01-02T06:42:10.765Z,0.00
2019-01-02T06:43:10.718Z,0.00
2019-01-02T06:44:10.676Z,0.00
2019-01-02T06:45:10.627Z,0.00
2019-01-02T06:46:10.585Z,0.00
2019-01-02T06:47:10.543Z,0.00
2019-01-02T06:48:10.501Z,0.00
2019-01-02T06:49:10.460Z,0.00
2019-01-02T06:50:10.411Z,0.00
2019-01-02T06:51:10.375Z,0.00
2019-01-02T06:52:10.334Z,0.00
2019-01-02T06:53:10.290Z,0.00
2019-01-02T06:54:10.245Z,0.00
2019-01-02T06:55:10.198Z,0.00
2019-01-02T06:56:10.155Z,0.00
2019-01-02T06:57:10.109Z,0.00
2019-01-02T06:58:10.065Z,0.00
2019-01-02T06:59:10.027Z,0.00
2019-01-02T07:00:09.983Z,0.00
2019-01-02T07:01:09.941Z,0.00
2019-01-02T07:02:09.898Z,0.00
2019-01-02T07:03:09.852Z,0.00
2019-01-02T07:04:09.807Z,4.00
2019-01-02T07:05:09.762Z,0.00
2019-01-02T07:06:09.724Z,0.00
2019-01-02T07:07:09.681Z,4.00
2019-01-02T07:08:09.635Z,4.00
2019-01-02T07:09:09.590Z,4.00
2019-01-02T07:10:09.545Z,4.00
2019-01-02T07:11:09.503Z,4.00
2019-01-02T07:12:09.464Z,4.00
2019-01-02T07:13:09.423Z,8.00
2019-01-02T07:14:09.378Z,8.00
2019-01-02T07:15:09.336Z,8.00
2019-01-02T07:16:09.287Z,8.00
2019-01-02T07:17:09.244Z,12.00
2019-01-02T07:18:09.198Z,12.00
2019-01-02T07:19:09.156Z,16.00
2019-01-02T07:20:09.117Z,20.00
2019-01-02T07:21:09.079Z,20.00
2019-01-02T07:22:09.025Z,20.00
2019-01-02T07:23:08.983Z,24.00
2019-01-02T07:24:08.945Z,28.00
2019-01-02T07:25:08.903Z,28.00
2019-01-02T07:26:08.858Z,32.00
2019-01-02T07:27:08.812Z,36.00
2019-01-02T07:28:08.767Z,40.00
2019-01-02T07:29:08.722Z,44.00
2019-01-02T07:30:08.677Z,48.00
2019-01-02T07:31:08.658Z,52.00
2019-01-02T07:32:08.596Z,56.00
2019-01-02T07:33:08.555Z,60.00
2019-01-02T07:34:08.510Z,64.00
2019-01-02T07:35:08.465Z,68.00
2019-01-02T07:36:08.420Z,76.00
2019-01-02T07:37:08.375Z,76.00
2019-01-02T07:38:08.337Z,80.00
2019-01-02T07:39:08.292Z,80.00
2019-01-02T07:40:08.245Z,84.00
2019-01-02T07:41:08.204Z,84.00
2019-01-02T07:42:08.156Z,88.00
2019-01-02T07:43:08.117Z,92.00
2019-01-02T07:44:08.076Z,100.00
2019-01-02T07:45:08.035Z,100.00
2019-01-02T07:46:07.991Z,104.00
2019-01-02T07:47:07.944Z,104.00
2019-01-02T07:48:07.912Z,104.00
2019-01-02T07:49:07.854Z,100.00
2019-01-02T07:50:07.810Z,100.00
2019-01-02T07:51:07.770Z,100.00
2019-01-02T07:52:07.729Z,96.00
2019-01-02T07:53:07.691Z,100.00
2019-01-02T07:54:07.636Z,96.00
2019-01-02T07:55:07.597Z,96.00
2019-01-02T07:56:07.554Z,100.00
2019-01-02T07:57:07.514Z,100.00
2019-01-02T07:58:07.469Z,104.00
2019-01-02T07:59:07.425Z,104.00
2019-01-02T08:00:07.379Z,112.00
2019-01-02T08:01:07.335Z,116.00
2019-01-02T08:02:07.289Z,132.00
2019-01-02T08:03:07.250Z,152.00
2019-01-02T08:04:07.210Z,172.00
2019-01-02T08:05:07.166Z,208.00
2019-01-02T08:06:07.122Z,224.00
2019-01-02T08:07:07.078Z,232.00
2019-01-02T08:08:07.031Z,220.00
2019-01-02T08:09:06.987Z,220.00
2019-01-02T08:10:06.953Z,232.00
2019-01-02T08:11:06.903Z,240.00
2019-01-02T08:12:06.858Z,252.00
2019-01-02T08:13:06.815Z,268.00
2019-01-02T08:14:06.771Z,284.00
2019-01-02T08:15:06.729Z,280.00
2019-01-02T08:16:06.690Z,292.00
2019-01-02T08:17:06.648Z,308.00
2019-01-02T08:18:06.604Z,312.00
2019-01-02T08:19:06.558Z,328.00
2019-01-02T08:20:06.513Z,344.00
2019-01-02T08:21:06.467Z,368.00
2019-01-02T08:22:06.423Z,380.00
2019-01-02T08:23:06.383Z,388.00
2019-01-02T08:24:06.342Z,420.00
2019-01-02T08:25:06.300Z,444.00
2019-01-02T08:26:06.253Z,456.00
2019-01-02T08:27:06.210Z,460.00
2019-01-02T08:28:06.168Z,468.00
2019-01-02T08:29:06.129Z,480.00
2019-01-02T08:30:06.083Z,496.00
2019-01-02T08:31:06.038Z,512.00
2019-01-02T08:32:05.994Z,508.00
2019-01-02T08:33:05.948Z,528.00
2019-01-02T08:34:05.904Z,544.00
2019-01-02T08:35:05.864Z,568.00
2019-01-02T08:36:05.822Z,584.00
2019-01-02T08:37:05.782Z,604.00
2019-01-02T08:38:05.790Z,636.00
2019-01-02T08:39:05.693Z,692.00
2019-01-02T08:40:05.649Z,724.00
2019-01-02T08:41:05.601Z,712.00
2019-01-02T08:42:05.564Z,684.00
2019-01-02T08:43:05.518Z,664.00
2019-01-02T08:44:05.475Z,652.00
2019-01-02T08:45:05.430Z,680.00
2019-01-02T08:46:05.386Z,700.00
2019-01-02T08:47:05.346Z,752.00
2019-01-02T08:48:05.304Z,768.00
2019-01-02T08:49:05.263Z,768.00
2019-01-02T08:50:05.219Z,788.00
2019-01-02T08:51:05.173Z,804.00
2019-01-02T08:52:05.128Z,812.00
2019-01-02T08:53:05.084Z,808.00
2019-01-02T08:54:05.039Z,812.00
2019-01-02T08:55:04.998Z,744.00
2019-01-02T08:56:04.963Z,652.00
2019-01-02T08:57:04.916Z,668.00
2019-01-02T08:58:04.868Z,648.00
2019-01-02T08:59:04.826Z,660.00
2019-01-02T09:00:04.785Z,644.00
2019-01-02T09:01:04.743Z,628.00
2019-01-02T09:02:04.699Z,632.00
2019-01-02T09:03:04.658Z,628.00
2019-01-02T09:04:04.615Z,616.00
2019-01-02T09:05:04.565Z,612.00
2019-01-02T09:06:04.522Z,628.00
2019-01-02T09:07:04.482Z,652.00
2019-01-02T09:08:04.438Z,656.00
2019-01-02T09:09:04.397Z,664.00
2019-01-02T09:10:04.353Z,656.00
2019-01-02T09:11:04.308Z,668.00
2019-01-02T09:12:04.264Z,672.00
2019-01-02T09:13:04.218Z,676.00
2019-01-02T09:14:04.182Z,692.00
2019-01-02T09:15:04.137Z,708.00
2019-01-02T09:16:04.091Z,724.00
2019-01-02T09:17:04.047Z,752.00
2019-01-02T09:18:04.008Z,760.00
2019-01-02T09:19:03.960Z,776.00
2019-01-02T09:20:03.920Z,788.00
2019-01-02T09:21:03.878Z,836.00
2019-01-02T09:22:03.835Z,884.00
2019-01-02T09:23:03.791Z,888.00
2019-01-02T09:24:03.749Z,912.00
2019-01-02T09:25:03.701Z,980.00
2019-01-02T09:26:03.726Z,1008.00
2019-01-02T09:27:03.616Z,1028.00
2019-01-02T09:28:03.575Z,1032.00
2019-01-02T09:29:03.534Z,1012.00
2019-01-02T09:30:03.486Z,976.00
2019-01-02T09:31:03.444Z,984.00
2019-01-02T09:32:03.402Z,992.00
2019-01-02T09:33:03.362Z,996.00
2019-01-02T09:34:03.317Z,1012.00
2019-01-02T09:35:03.276Z,1064.00
2019-01-02T09:36:03.229Z,1068.00
2019-01-02T09:37:03.184Z,1064.00
2019-01-02T09:38:03.140Z,1040.00
2019-01-02T09:39:03.102Z,984.00
2019-01-02T09:40:03.064Z,964.00
2019-01-02T09:41:03.018Z,968.00
2019-01-02T09:42:02.980Z,968.00
2019-01-02T09:43:02.929Z,992.00
2019-01-02T09:44:02.883Z,1008.00
2019-01-02T09:45:02.838Z,1032.00
2019-01-02T09:46:02.800Z,1060.00
2019-01-02T09:47:02.756Z,1104.00
2019-01-02T09:48:02.771Z,1136.00
2019-01-02T09:49:02.666Z,1136.00
2019-01-02T09:50:02.670Z,1148.00
2019-01-02T09:51:02.581Z,1172.00
2019-01-02T09:52:02.540Z,1200.00
2019-01-02T09:53:02.499Z,1208.00
2019-01-02T09:54:02.459Z,1228.00
2019-01-02T09:55:02.413Z,1216.00
2019-01-02T09:56:02.366Z,1240.00
2019-01-02T09:57:02.321Z,1264.00
2019-01-02T09:58:02.278Z,1288.00
2019-01-02T09:59:02.238Z,1312.00
2019-01-02T10:00:02.197Z,1344.00
2019-01-02T10:01:02.155Z,1360.00
2019-01-02T10:02:02.106Z,1396.00
2019-01-02T10:03:02.065Z,1416.00
2019-01-02T10:04:02.025Z,1428.00
2019-01-02T10:05:01.983Z,1420.00
2019-01-02T10:19:43.869Z,1432.00
2019-01-02T10:20:44.029Z,1424.00
2019-01-02T10:21:43.737Z,1420.00
2019-01-02T10:22:43.686Z,1392.00
2019-01-02T10:23:43.641Z,1360.00
2019-01-02T10:24:43.599Z,1312.00
2019-01-02T10:25:44.331Z,1268.00
2019-01-02T10:26:43.507Z,1248.00
2019-01-02T10:27:43.465Z,1216.00
2019-01-02T10:28:43.418Z,1180.00
2019-01-02T10:29:43.372Z,1168.00
2019-01-02T10:30:43.335Z,1168.00
2019-01-02T10:31:43.289Z,1140.00
2019-01-02T10:32:43.243Z,1132.00
2019-01-02T10:33:43.202Z,1120.00
2019-01-02T10:34:43.158Z,1124.00
2019-01-02T10:35:43.111Z,1140.00
2019-01-02T10:36:43.068Z,1176.00
2019-01-02T10:37:43.022Z,1228.00
2019-01-02T10:38:42.985Z,1272.00
2019-01-02T10:39:42.942Z,1324.00
2019-01-02T10:40:42.894Z,1360.00
2019-01-02T10:41:42.849Z,1372.00
2019-01-02T10:42:42.812Z,1348.00
2019-01-02T10:43:42.766Z,1368.00
2019-01-02T10:44:42.723Z,1376.00
2019-01-02T10:45:42.682Z,1336.00
2019-01-02T10:46:42.634Z,1316.00
2019-01-02T10:47:42.595Z,1304.00
2019-01-02T10:48:42.549Z,1304.00
2019-01-02T10:49:42.504Z,1304.00
2019-01-02T10:50:42.467Z,1320.00
2019-01-02T10:51:42.426Z,1340.00
2019-01-02T10:52:42.379Z,1356.00
2019-01-02T10:53:42.339Z,1372.00
2019-01-02T10:54:42.289Z,1336.00
2019-01-02T10:55:42.252Z,1320.00
2019-01-02T10:56:42.208Z,1288.00
2019-01-02T10:57:42.166Z,1232.00
2019-01-02T10:58:42.117Z,1208.00
2019-01-02T10:59:42.078Z,1196.00
2019-01-02T11:00:42.033Z,1248.00
2019-01-02T11:01:41.988Z,1296.00
2019-01-02T11:02:41.952Z,1304.00
2019-01-02T11:03:41.906Z,1300.00
2019-01-02T11:04:41.863Z,1296.00
2019-01-02T11:05:41.824Z,1324.00
2019-01-02T11:06:41.857Z,1348.00
2019-01-02T11:07:41.731Z,1384.00
2019-01-02T11:08:41.690Z,1452.00
2019-01-02T11:09:41.647Z,1508.00
2019-01-02T11:10:41.610Z,1576.00
2019-01-02T11:11:41.569Z,1636.00
2019-01-02T11:12:41.520Z,1692.00
2019-01-02T11:13:41.478Z,1728.00
2019-01-02T11:14:41.437Z,1776.00
2019-01-02T11:15:41.392Z,1812.00
2019-01-02T11:16:41.353Z,1856.00
2019-01-02T11:17:41.309Z,1876.00
2019-01-02T11:18:41.259Z,1896.00
2019-01-02T11:19:41.221Z,1940.00
2019-01-02T11:20:41.175Z,1964.00
2019-01-02T11:21:41.131Z,1996.00
2019-01-02T11:22:41.096Z,2020.00
2019-01-02T11:23:41.049Z,2080.00
2019-01-02T11:24:41.006Z,2124.00
2019-01-02T11:25:40.966Z,2156.00
2019-01-02T11:26:40.921Z,2192.00
2019-01-02T11:27:40.875Z,2184.00
2019-01-02T11:28:40.835Z,2200.00
2019-01-02T11:29:40.795Z,2200.00
2019-01-02T11:30:40.747Z,2316.00
2019-01-02T11:31:40.707Z,2336.00
2019-01-02T11:32:40.663Z,2340.00
2019-01-02T11:33:40.618Z,2328.00
2019-01-02T11:34:40.580Z,2304.00
2019-01-02T11:35:40.536Z,2340.00
2019-01-02T11:36:40.496Z,2596.00
2019-01-02T11:37:40.451Z,2400.00
2019-01-02T11:38:40.406Z,2344.00
2019-01-02T11:39:40.361Z,2352.00
2019-01-02T11:40:40.318Z,2276.00
2019-01-02T11:41:40.278Z,2288.00
2019-01-02T11:42:40.238Z,2352.00
2019-01-02T11:43:40.195Z,3224.00
2019-01-02T11:44:40.147Z,3000.00
2019-01-02T11:45:40.108Z,2636.00
2019-01-02T11:46:40.070Z,3064.00
2019-01-02T11:47:40.026Z,3160.00
2019-01-02T11:48:39.983Z,2548.00
2019-01-02T11:49:39.939Z,3044.00
2019-01-02T11:50:39.894Z,3400.00
2019-01-02T11:51:39.850Z,3076.00
2019-01-02T11:52:39.827Z,3400.00
2019-01-02T11:53:39.766Z,3576.00
2019-01-02T11:54:39.726Z,3612.00
2019-01-02T11:55:39.685Z,3612.00
2019-01-02T11:56:39.641Z,3600.00
2019-01-02T11:57:39.597Z,3476.00
2019-01-02T11:58:39.553Z,2472.00
2019-01-02T11:59:39.507Z,2308.00
2019-01-02T12:00:39.471Z,2040.00
2019-01-02T12:01:39.449Z,2028.00
2019-01-02T12:02:39.383Z,2168.00
2019-01-02T12:03:39.339Z,2252.00
2019-01-02T12:04:39.297Z,2304.00
2019-01-02T12:05:39.257Z,2380.00
2019-01-02T12:06:39.218Z,2460.00
2019-01-02T12:07:39.172Z,2320.00
2019-01-02T12:08:39.132Z,2052.00
2019-01-02T12:09:39.086Z,1844.00
2019-01-02T12:10:39.042Z,1628.00
2019-01-02T12:11:38.997Z,1504.00
2019-01-02T12:12:38.955Z,1476.00
2019-01-02T12:13:38.914Z,1376.00
2019-01-02T12:14:38.876Z,1292.00
2019-01-02T12:15:38.835Z,1300.00
2019-01-02T12:16:38.788Z,1376.00
2019-01-02T12:17:38.744Z,1456.00
2019-01-02T12:18:38.704Z,1420.00
2019-01-02T12:19:38.662Z,1444.00
2019-01-02T12:20:38.619Z,1472.00
2019-01-02T12:21:38.576Z,1468.00
2019-01-02T12:22:38.531Z,1476.00
2019-01-02T12:23:38.493Z,1464.00
2019-01-02T12:24:38.444Z,1456.00
2019-01-02T12:25:38.404Z,1272.00
2019-01-02T12:26:38.364Z,1288.00
2019-01-02T12:27:38.322Z,1252.00
2019-01-02T12:28:38.279Z,1208.00
2019-01-02T12:29:38.236Z,1180.00
2019-01-02T12:30:38.191Z,1164.00
2019-01-02T12:31:38.146Z,1224.00
2019-01-02T12:32:38.110Z,1368.00
2019-01-02T12:33:38.071Z,1532.00
2019-01-02T12:34:38.020Z,2384.00
2019-01-02T12:35:37.976Z,2484.00
2019-01-02T12:36:37.933Z,1988.00
2019-01-02T12:37:37.892Z,1956.00
2019-01-02T12:38:37.921Z,1752.00
2019-01-02T12:39:37.812Z,1600.00
2019-01-02T12:40:37.772Z,1584.00
2019-01-02T12:41:37.727Z,1568.00
2019-01-02T12:42:37.683Z,1616.00
2019-01-02T12:43:37.636Z,1708.00
2019-01-02T12:44:37.592Z,1700.00
2019-01-02T12:45:37.552Z,1480.00
2019-01-02T12:46:37.514Z,1364.00
2019-01-02T12:47:37.470Z,1196.00
2019-01-02T12:48:37.422Z,1128.00
2019-01-02T12:49:37.383Z,1116.00
2019-01-02T12:50:37.342Z,1152.00
2019-01-02T12:51:37.301Z,1328.00
2019-01-02T12:52:37.258Z,1436.00
2019-01-02T12:53:37.215Z,1504.00
2019-01-02T12:54:37.170Z,1488.00
2019-01-02T12:55:37.127Z,1540.00
2019-01-02T12:56:37.082Z,1600.00
2019-01-02T12:57:37.042Z,1680.00
2019-01-02T12:58:37.000Z,1684.00
2019-01-02T12:59:36.961Z,1648.00
2019-01-02T13:00:36.917Z,1608.00
2019-01-02T13:01:36.874Z,1584.00
2019-01-02T13:02:36.828Z,1524.00
2019-01-02T13:03:36.787Z,1536.00
2019-01-02T13:04:36.747Z,1580.00
2019-01-02T13:05:36.703Z,1596.00
2019-01-02T13:06:36.658Z,1648.00
2019-01-02T13:07:36.618Z,2420.00
2019-01-02T13:08:36.575Z,2444.00
2019-01-02T13:09:36.528Z,2280.00
2019-01-02T13:10:36.490Z,2244.00
2019-01-02T13:11:36.448Z,2204.00
2019-01-02T13:12:36.408Z,2128.00
2019-01-02T13:13:36.365Z,1576.00
2019-01-02T13:14:36.319Z,2024.00
2019-01-02T13:15:36.272Z,2064.00
2019-01-02T13:16:36.231Z,1568.00
2019-01-02T13:17:36.190Z,1332.00
2019-01-02T13:18:36.150Z,1264.00
2019-01-02T13:19:36.108Z,1280.00
2019-01-02T13:20:36.059Z,1344.00
2019-01-02T13:21:36.019Z,1372.00
2019-01-02T13:22:35.980Z,1412.00
2019-01-02T13:23:35.938Z,1376.00
2019-01-02T13:24:35.897Z,1328.00
2019-01-02T13:25:35.853Z,1160.00
2019-01-02T13:26:35.809Z,1140.00
2019-01-02T13:27:35.762Z,1020.00
2019-01-02T13:28:35.723Z,984.00
2019-01-02T13:29:35.680Z,948.00
2019-01-02T13:30:35.643Z,948.00
2019-01-02T13:31:35.600Z,1088.00
2019-01-02T13:32:35.556Z,1124.00
2019-01-02T13:33:35.513Z,1192.00
2019-01-02T13:34:35.467Z,1200.00
2019-01-02T13:35:35.425Z,1212.00
2019-01-02T13:36:35.386Z,1236.00
2019-01-02T13:37:35.341Z,1260.00
2019-01-02T13:38:35.299Z,1284.00
2019-01-02T13:39:35.253Z,1320.00
2019-01-02T13:40:35.209Z,1356.00
2019-01-02T13:41:35.168Z,1380.00
2019-01-02T13:42:35.129Z,1412.00
2019-01-02T13:43:35.089Z,1476.00
2019-01-02T13:44:35.045Z,2016.00
2019-01-02T13:45:43.648Z,2072.00
2019-01-02T13:47:39.397Z,1992.00
2019-01-02T13:48:39.329Z,1968.00
2019-01-02T13:49:39.280Z,1844.00
2019-01-02T13:50:39.240Z,1604.00
2019-01-02T13:51:39.198Z,1548.00
2019-01-02T13:52:39.152Z,1516.00
2019-01-02T13:53:39.116Z,1516.00
2019-01-02T13:54:39.070Z,1584.00
2019-01-02T13:55:39.026Z,1536.00
2019-01-02T13:56:38.982Z,1500.00
2019-01-02T13:57:38.945Z,1448.00
2019-01-02T13:58:38.903Z,1376.00
2019-01-02T13:59:38.858Z,1336.00
2019-01-02T14:00:38.818Z,1304.00
2019-01-02T14:01:38.769Z,1288.00
2019-01-02T14:02:38.728Z,1272.00
2019-01-02T14:03:38.686Z,1272.00
2019-01-02T14:04:38.643Z,1292.00
2019-01-02T14:05:38.603Z,1328.00
2019-01-02T14:06:38.560Z,1312.00
2019-01-02T14:07:38.518Z,1268.00
2019-01-02T14:08:38.486Z,1248.00
2019-01-02T14:09:38.452Z,1228.00
2019-01-02T14:10:38.387Z,1232.00
2019-01-02T14:11:38.347Z,1280.00
2019-01-02T14:12:38.306Z,1344.00
2019-01-02T14:13:38.257Z,1384.00
2019-01-02T14:14:38.216Z,1368.00
2019-01-02T14:15:38.177Z,1336.00
2019-01-02T14:16:38.132Z,1304.00
2019-01-02T14:17:38.093Z,1276.00
2019-01-02T14:18:38.047Z,1252.00
2019-01-02T14:19:38.869Z,1180.00
2019-01-02T14:22:21.095Z,1112.00
2019-01-02T14:23:21.021Z,1076.00
2019-01-02T14:24:20.973Z,1036.00
2019-01-02T14:25:20.932Z,1032.00
2019-01-02T14:26:20.893Z,1000.00
2019-01-02T14:27:21.203Z,988.00
2019-01-02T14:28:20.807Z,964.00
2019-01-02T14:29:20.764Z,940.00
2019-01-02T14:30:20.720Z,936.00
2019-01-02T14:31:20.674Z,944.00
2019-01-02T14:32:20.631Z,960.00
2019-01-02T14:33:20.904Z,944.00
2019-01-02T14:34:21.099Z,944.00
2019-01-02T14:35:22.524Z,940.00
2019-01-02T14:36:21.315Z,936.00
2019-01-02T14:37:20.423Z,928.00
2019-01-02T14:38:20.378Z,924.00
2019-01-02T14:39:20.333Z,896.00
2019-01-02T14:40:20.297Z,880.00
2019-01-02T14:41:20.271Z,860.00
2019-01-02T14:42:20.207Z,856.00
2019-01-02T14:43:20.162Z,852.00
2019-01-02T14:44:20.120Z,864.00
2019-01-02T14:45:20.080Z,876.00
2019-01-02T14:46:20.042Z,880.00
2019-01-02T14:47:19.998Z,864.00
2019-01-02T14:48:19.958Z,844.00
2019-01-02T14:49:19.913Z,824.00
2019-01-02T14:50:19.866Z,796.00
2019-01-02T14:51:19.822Z,780.00
2019-01-02T14:52:19.779Z,768.00
2019-01-02T14:53:19.739Z,764.00
2019-01-02T14:54:19.698Z,752.00
2019-01-02T14:55:19.657Z,736.00
2019-01-02T14:56:19.608Z,720.00
2019-01-02T14:57:19.566Z,700.00
2019-01-02T14:58:19.528Z,672.00
2019-01-02T14:59:19.488Z,656.00
2019-01-02T15:00:19.445Z,636.00
2019-01-02T15:01:19.401Z,612.00
2019-01-02T15:02:19.355Z,584.00
2019-01-02T15:03:19.309Z,560.00
2019-01-02T15:04:19.269Z,540.00
2019-01-02T15:05:19.228Z,516.00
2019-01-02T15:06:19.186Z,504.00
2019-01-02T15:07:19.148Z,488.00
2019-01-02T15:08:19.101Z,472.00
2019-01-02T15:09:19.058Z,460.00
2019-01-02T15:10:19.013Z,452.00
2019-01-02T15:11:18.968Z,440.00
2019-01-02T15:12:18.931Z,424.00
2019-01-02T15:13:18.886Z,408.00
2019-01-02T15:14:18.842Z,392.00
2019-01-02T15:15:18.796Z,380.00
2019-01-02T15:16:18.753Z,364.00
2019-01-02T15:17:18.731Z,344.00
2019-01-02T15:18:18.673Z,328.00